Time;durP1;ratioP1;P1;durP2;ratioP2;P2;SDS_P1;SDS_P2;PMS_P1;PMS_P2;Temp;Humidity;BMP_temperature;BMP_pressure;BME280_temperature;BME280_humidity;BME280_pressure;Samples;Min_cycle;Max_cycle;Signal;HPM_P1;HPM_P2
2022/07/10 00:00:01;;;;;;;4.97;1.08;;;20.50;89.50;;;;;;5073498;28;20174;-65
2022/07/10 00:02:27;;;;;;;2.67;0.93;;;20.50;89.20;;;;;;5074377;28;20127;-65
2022/07/10 00:04:56;;;;;;;3.72;1.40;;;20.50;89.30;;;;;;5075303;28;20559;-65
2022/07/10 00:07:22;;;;;;;2.90;1.20;;;20.50;89.00;;;;;;5073371;28;20557;-66
2022/07/10 00:09:48;;;;;;;5.88;1.10;;;20.40;89.20;;;;;;5074362;28;20036;-65
2022/07/10 00:12:15;;;;;;;5.78;1.17;;;20.50;89.20;;;;;;5074161;28;20511;-65
2022/07/10 00:14:44;;;;;;;1.95;0.90;;;20.50;88.90;;;;;;5073545;28;20112;-66
2022/07/10 00:17:10;;;;;;;7.43;1.08;;;20.50;89.00;;;;;;5073622;28;20028;-65
2022/07/10 00:19:36;;;;;;;2.30;1.30;;;20.50;89.00;;;;;;5074057;28;20138;-66
2022/07/10 00:22:02;;;;;;;4.68;1.20;;;20.40;89.10;;;;;;5073807;28;20491;-66
2022/07/10 00:24:30;;;;;;;4.95;1.15;;;20.50;88.80;;;;;;5074024;28;20086;-66
2022/07/10 00:26:56;;;;;;;5.22;1.15;;;20.40;89.10;;;;;;5073289;28;20053;-66
2022/07/10 00:29:22;;;;;;;4.25;1.17;;;20.60;88.60;;;;;;5073422;28;20424;-66
2022/07/10 00:31:48;;;;;;;3.95;1.00;;;20.60;88.70;;;;;;5089433;28;20041;-65
2022/07/10 00:34:14;;;;;;;1.75;0.90;;;20.60;88.60;;;;;;5073690;28;20430;-65
2022/07/10 00:36:40;;;;;;;2.65;0.80;;;20.60;88.50;;;;;;5073722;28;20028;-65
2022/07/10 00:39:07;;;;;;;4.72;1.00;;;20.50;88.70;;;;;;5073564;28;20127;-66
2022/07/10 00:41:33;;;;;;;5.18;1.17;;;20.50;88.90;;;;;;5073471;28;20056;-66
2022/07/10 00:44:01;;;;;;;2.40;0.95;;;20.40;89.00;;;;;;5072607;28;20129;-66
2022/07/10 00:46:31;;;;;;;1.70;0.90;;;20.50;89.00;;;;;;5073497;28;20029;-66
2022/07/10 00:48:58;;;;;;;2.30;0.90;;;20.50;89.00;;;;;;5073221;28;20127;-66
2022/07/10 00:51:26;;;;;;;1.75;0.98;;;20.50;88.90;;;;;;5072555;28;20282;-66
2022/07/10 00:53:54;;;;;;;2.25;1.00;;;20.50;89.10;;;;;;5072937;28;20063;-66
2022/07/10 00:56:24;;;;;;;3.80;1.17;;;20.40;89.40;;;;;;5073626;28;20098;-66
2022/07/10 00:58:50;;;;;;;2.57;1.03;;;20.40;89.30;;;;;;5073025;28;20037;-66
2022/07/10 01:01:16;;;;;;;1.83;1.08;;;20.40;89.40;;;;;;5075160;28;20024;-67
2022/07/10 01:03:45;;;;;;;5.30;1.10;;;20.40;89.50;;;;;;5075044;28;20044;-66
2022/07/10 01:06:12;;;;;;;5.15;1.27;;;20.40;89.60;;;;;;5074970;28;20507;-66
2022/07/10 01:08:37;;;;;;;3.90;1.08;;;20.40;89.60;;;;;;5074876;28;20373;-66
2022/07/10 01:11:04;;;;;;;3.83;1.10;;;20.40;89.30;;;;;;5073321;28;20040;-66
2022/07/10 01:13:29;;;;;;;3.72;1.17;;;20.30;89.60;;;;;;5074558;28;20036;-67
2022/07/10 01:15:56;;;;;;;2.33;1.10;;;20.40;89.30;;;;;;5074617;28;20044;-66
2022/07/10 01:18:22;;;;;;;4.25;1.00;;;20.40;89.10;;;;;;5074578;28;20863;-66
2022/07/10 01:20:53;;;;;;;4.80;1.00;;;20.40;89.40;;;;;;5074633;28;20072;-66
2022/07/10 01:23:18;;;;;;;3.20;1.52;;;20.40;89.50;;;;;;5074263;28;20500;-66
2022/07/10 01:25:44;;;;;;;3.00;0.80;;;20.30;89.60;;;;;;5074523;28;20045;-65
2022/07/10 01:28:10;;;;;;;8.93;1.05;;;20.40;89.50;;;;;;5074435;28;20046;-66
2022/07/10 01:30:35;;;;;;;4.25;1.23;;;20.30;89.70;;;;;;5074068;28;20054;-67
2022/07/10 01:33:01;;;;;;;3.50;1.10;;;20.30;89.80;;;;;;5074084;28;20044;-66
2022/07/10 01:35:28;;;;;;;3.65;1.08;;;20.40;89.80;;;;;;5074141;28;20135;-66
2022/07/10 01:37:54;;;;;;;5.82;1.00;;;20.30;90.00;;;;;;5074247;28;20124;-65
2022/07/10 01:40:20;;;;;;;1.88;1.20;;;20.30;90.10;;;;;;5074202;28;20040;-66
2022/07/10 01:42:46;;;;;;;4.53;1.30;;;20.20;90.20;;;;;;5074230;28;20040;-66
2022/07/10 01:45:12;;;;;;;2.17;1.20;;;20.20;90.30;;;;;;5074087;28;20381;-66
2022/07/10 01:47:38;;;;;;;2.05;1.10;;;20.10;90.30;;;;;;5073962;28;20121;-66
2022/07/10 01:50:05;;;;;;;1.75;1.10;;;20.20;90.20;;;;;;5074014;28;20052;-66
2022/07/10 01:52:31;;;;;;;2.53;0.90;;;20.20;90.20;;;;;;5073862;28;20064;-66
2022/07/10 01:54:56;;;;;;;2.78;0.93;;;20.20;90.20;;;;;;5073954;28;20083;-66
2022/07/10 01:57:22;;;;;;;4.65;1.17;;;20.10;90.30;;;;;;5074046;28;20086;-66
2022/07/10 01:59:48;;;;;;;3.30;1.33;;;20.10;90.20;;;;;;5073856;28;20033;-69
2022/07/10 02:02:14;;;;;;;2.17;1.17;;;20.10;90.20;;;;;;5073923;28;20040;-66
2022/07/10 02:04:42;;;;;;;4.43;1.60;;;20.20;90.20;;;;;;5073709;28;20052;-66
2022/07/10 02:07:09;;;;;;;1.67;0.93;;;;;;;;;;5073706;28;20128;-66
2022/07/10 02:09:35;;;;;;;5.85;1.17;;;20.00;90.20;;;;;;5073731;28;20123;-66
2022/07/10 02:12:01;;;;;;;1.88;1.00;;;20.00;90.40;;;;;;5073486;28;20029;-65
2022/07/10 02:14:27;;;;;;;2.10;1.00;;;20.00;90.50;;;;;;5070312;28;20067;-68
2022/07/10 02:16:53;;;;;;;4.45;1.17;;;20.00;90.40;;;;;;5073645;28;20399;-69
2022/07/10 02:19:19;;;;;;;3.97;1.05;;;20.00;90.50;;;;;;5073403;28;20507;-66
2022/07/10 02:21:48;;;;;;;2.00;1.13;;;;;;;;;;5073305;28;20044;-66
2022/07/10 02:24:14;;;;;;;7.05;1.20;;;;;;;;;;5073236;28;20051;-66
2022/07/10 02:26:40;;;;;;;3.25;1.30;;;;;;;;;;5073457;28;20055;-66
2022/07/10 02:29:07;;;;;;;2.45;1.30;;;;;;;;;;5073407;28;20119;-66
2022/07/10 02:31:34;;;;;;;2.25;0.93;;;;;;;;;;5072862;28;20056;-66
2022/07/10 02:34:03;;;;;;;2.53;1.10;;;19.90;91.60;;;;;;5073005;28;20037;-67
2022/07/10 02:36:28;;;;;;;2.22;1.10;;;19.70;91.00;;;;;;5073242;28;20064;-67
2022/07/10 02:38:54;;;;;;;3.83;1.10;;;19.70;91.00;;;;;;5073306;28;20117;-66
2022/07/10 02:41:20;;;;;;;3.65;1.13;;;19.60;91.10;;;;;;5073299;28;20036;-66
2022/07/10 02:43:46;;;;;;;2.20;1.30;;;19.70;91.00;;;;;;5073224;28;20052;-68
2022/07/10 02:46:11;;;;;;;4.07;1.48;;;19.70;91.10;;;;;;5073314;28;20040;-66
2022/07/10 02:48:37;;;;;;;4.00;1.33;;;19.60;91.20;;;;;;5073110;28;20043;-66
2022/07/10 02:51:03;;;;;;;3.20;1.15;;;19.50;91.40;;;;;;5072841;28;20067;-65
2022/07/10 02:53:28;;;;;;;3.28;1.33;;;19.50;91.40;;;;;;5072749;28;20036;-65
2022/07/10 02:55:54;;;;;;;2.17;1.10;;;19.40;91.60;;;;;;5073124;28;20041;-66
2022/07/10 02:58:20;;;;;;;3.67;1.10;;;19.40;91.70;;;;;;5073111;28;20036;-66
2022/07/10 03:00:46;;;;;;;2.97;1.23;;;19.50;91.70;;;;;;5072959;28;20127;-66
2022/07/10 03:03:11;;;;;;;2.85;1.20;;;19.40;91.90;;;;;;5072857;28;20037;-66
2022/07/10 03:05:37;;;;;;;2.30;1.23;;;19.40;91.90;;;;;;5072855;28;20177;-67
2022/07/10 03:08:03;;;;;;;1.80;1.25;;;19.40;92.00;;;;;;5072914;28;20123;-66
2022/07/10 03:10:29;;;;;;;3.65;1.20;;;19.30;92.10;;;;;;5072933;28;20048;-66
2022/07/10 03:12:55;;;;;;;7.15;1.27;;;19.40;92.10;;;;;;5072873;28;20032;-67
2022/07/10 03:15:21;;;;;;;4.32;1.40;;;19.30;92.20;;;;;;5072957;28;20037;-66
2022/07/10 03:17:46;;;;;;;4.78;1.45;;;19.40;92.30;;;;;;5075778;28;20044;-67
2022/07/10 03:20:12;;;;;;;5.90;1.95;;;19.30;92.50;;;;;;5076766;28;20041;-65
2022/07/10 03:22:38;;;;;;;4.03;1.52;;;19.30;92.60;;;;;;5076639;28;20043;-65
2022/07/10 03:25:05;;;;;;;4.32;1.58;;;19.20;92.70;;;;;;5076664;28;20127;-67
2022/07/10 03:27:30;;;;;;;2.30;1.60;;;19.20;93.00;;;;;;5076865;28;20415;-66
2022/07/10 03:29:56;;;;;;;4.00;1.55;;;19.20;93.20;;;;;;5075257;28;20043;-66
2022/07/10 03:32:22;;;;;;;2.10;1.27;;;19.10;93.20;;;;;;5076394;28;20048;-67
2022/07/10 03:34:48;;;;;;;5.63;1.85;;;19.10;93.30;;;;;;5076556;28;20044;-65
2022/07/10 03:37:13;;;;;;;2.83;1.65;;;19.10;93.40;;;;;;5076344;28;20119;-65
2022/07/10 03:39:39;;;;;;;3.85;1.58;;;19.10;95.20;;;;;;5076551;28;20131;-65
2022/07/10 03:42:06;;;;;;;12.68;1.50;;;18.90;93.80;;;;;;5076524;28;20557;-68
2022/07/10 03:44:32;;;;;;;2.58;1.77;;;18.90;93.90;;;;;;5076488;28;20135;-65
2022/07/10 03:46:58;;;;;;;5.57;1.45;;;18.80;94.00;;;;;;5076735;28;20040;-66
2022/07/10 03:49:23;;;;;;;3.33;1.60;;;18.80;94.00;;;;;;5076370;28;20067;-65
2022/07/10 03:51:49;;;;;;;4.63;1.42;;;18.80;94.10;;;;;;5075998;28;20032;-65
2022/07/10 03:54:15;;;;;;;4.72;2.08;;;18.80;94.30;;;;;;5075753;28;20137;-65
2022/07/10 03:59:25;;;;;;;3.97;1.60;;;18.70;94.50;;;;;;5076080;28;20517;-65
2022/07/10 04:01:51;;;;;;;2.58;1.65;;;;;;;;;;5076112;28;20067;-66
2022/07/10 04:04:17;;;;;;;3.00;1.40;;;18.60;94.70;;;;;;5076015;28;20051;-68
2022/07/10 04:06:42;;;;;;;6.13;1.92;;;18.60;95.00;;;;;;5075911;28;20123;-65
2022/07/10 04:09:08;;;;;;;4.93;1.70;;;18.60;95.10;;;;;;5075921;28;20047;-66
2022/07/10 04:11:34;;;;;;;3.75;2.00;;;18.60;95.10;;;;;;5075858;28;20032;-65
2022/07/10 04:14:00;;;;;;;4.00;1.70;;;18.60;95.20;;;;;;5075820;28;20029;-65
2022/07/10 04:16:25;;;;;;;4.93;1.73;;;18.50;95.30;;;;;;5075837;28;20040;-65
2022/07/10 04:18:51;;;;;;;5.60;1.65;;;18.50;95.40;;;;;;5075885;28;20459;-65
2022/07/10 04:21:17;;;;;;;6.68;1.75;;;18.50;95.50;;;;;;5075507;28;20127;-69
2022/07/10 04:23:42;;;;;;;2.20;1.50;;;18.40;95.50;;;;;;5075470;28;20495;-67
2022/07/10 04:26:08;;;;;;;14.85;3.00;;;18.40;95.60;;;;;;5075660;28;20048;-66
2022/07/10 04:28:34;;;;;;;7.35;1.90;;;18.40;95.80;;;;;;5074395;28;20407;-65
2022/07/10 04:31:00;;;;;;;3.90;2.65;;;18.40;95.80;;;;;;5075533;28;20626;-65
2022/07/10 04:33:26;;;;;;;4.53;1.88;;;18.40;95.90;;;;;;5075581;28;20123;-66
2022/07/10 04:35:52;;;;;;;4.40;1.83;;;18.40;96.10;;;;;;5075384;28;20526;-65
2022/07/10 04:38:17;;;;;;;4.57;2.00;;;18.40;96.10;;;;;;5075216;28;20032;-65
2022/07/10 04:40:43;;;;;;;2.95;1.90;;;18.30;96.30;;;;;;5075301;28;20466;-66
2022/07/10 04:43:10;;;;;;;2.65;1.73;;;18.30;96.40;;;;;;5075260;28;20036;-65
2022/07/10 04:45:37;;;;;;;5.15;1.80;;;18.30;96.50;;;;;;5075543;28;20048;-65
2022/07/10 04:48:05;;;;;;;3.55;1.75;;;18.30;96.70;;;;;;5075238;28;20085;-69
2022/07/10 04:50:30;;;;;;;2.22;1.58;;;18.30;96.80;;;;;;5075295;28;20040;-66
2022/07/10 04:52:56;;;;;;;3.83;1.70;;;18.40;96.80;;;;;;5075256;28;20039;-66
2022/07/10 04:55:23;;;;;;;4.63;1.98;;;18.40;96.70;;;;;;5071105;28;20040;-65
2022/07/10 04:57:49;;;;;;;3.08;1.83;;;18.50;97.00;;;;;;5054756;28;20036;-67
2022/07/10 05:00:15;;;;;;;6.30;1.80;;;18.50;96.70;;;;;;5053962;28;20554;-65
2022/07/10 05:02:41;;;;;;;4.00;1.60;;;18.60;96.80;;;;;;5071687;28;20079;-66
2022/07/10 05:05:08;;;;;;;2.75;1.50;;;18.60;96.80;;;;;;5073406;28;20051;-69
2022/07/10 05:07:33;;;;;;;3.70;1.80;;;18.60;96.70;;;;;;5074602;28;20032;-66
2022/07/10 05:09:59;;;;;;;5.70;1.80;;;18.70;96.90;;;;;;5074680;28;20036;-65
2022/07/10 05:12:25;;;;;;;2.95;1.80;;;18.70;96.80;;;;;;5074501;28;20072;-65
2022/07/10 05:14:51;;;;;;;6.50;2.05;;;18.70;97.20;;;;;;5074965;28;20079;-65
2022/07/10 05:17:18;;;;;;;1.95;1.70;;;18.80;97.00;;;;;;5074729;28;20044;-68
2022/07/10 05:19:43;;;;;;;4.68;1.88;;;18.80;97.10;;;;;;5074658;28;20403;-66
2022/07/10 05:22:09;;;;;;;2.67;1.75;;;18.80;97.30;;;;;;5074660;28;20044;-65
2022/07/10 05:24:36;;;;;;;4.32;1.92;;;18.80;97.30;;;;;;5074546;28;20622;-65
2022/07/10 05:27:02;;;;;;;4.80;1.95;;;18.80;97.60;;;;;;5074542;28;20041;-65
2022/07/10 05:29:28;;;;;;;3.13;2.20;;;18.90;97.60;;;;;;5074542;28;20060;-66
2022/07/10 05:31:54;;;;;;;7.47;1.77;;;18.90;97.50;;;;;;5073711;28;20072;-66
2022/07/10 05:34:19;;;;;;;3.88;1.95;;;19.00;97.60;;;;;;5073713;28;20093;-66
2022/07/10 05:36:45;;;;;;;5.07;2.20;;;19.00;97.70;;;;;;5073481;28;20123;-66
2022/07/10 05:39:11;;;;;;;4.20;2.10;;;19.10;97.70;;;;;;5073240;28;20043;-69
2022/07/10 05:41:37;;;;;;;8.20;1.95;;;19.30;97.70;;;;;;5072936;28;20094;-66
2022/07/10 05:44:03;;;;;;;3.90;1.85;;;19.40;97.70;;;;;;5073478;28;20436;-67
2022/07/10 05:46:28;;;;;;;5.10;2.10;;;19.60;98.90;;;;;;5073057;28;20088;-66
2022/07/10 05:48:54;;;;;;;4.70;1.85;;;19.60;97.40;;;;;;5073778;28;20083;-66
2022/07/10 05:51:20;;;;;;;3.78;1.75;;;19.90;97.30;;;;;;5073620;28;20044;-65
2022/07/10 05:53:46;;;;;;;4.60;2.22;;;19.80;97.10;;;;;;5073750;28;20047;-66
2022/07/10 05:56:11;;;;;;;4.70;2.17;;;19.80;97.40;;;;;;5073768;28;20044;-65
2022/07/10 05:58:37;;;;;;;4.85;2.50;;;19.90;97.30;;;;;;5073803;28;20044;-66
2022/07/10 06:01:03;;;;;;;3.55;1.90;;;20.00;97.30;;;;;;5073643;28;20576;-68
2022/07/10 06:03:29;;;;;;;6.55;1.90;;;19.90;97.30;;;;;;5073559;28;20036;-66
2022/07/10 06:05:54;;;;;;;3.95;2.00;;;20.00;97.20;;;;;;5073616;28;20411;-66
2022/07/10 06:08:21;;;;;;;4.22;1.85;;;20.40;96.90;;;;;;5073587;28;20522;-67
2022/07/10 06:10:47;;;;;;;9.00;2.05;;;20.40;97.00;;;;;;5073634;28;20045;-67
2022/07/10 06:13:12;;;;;;;3.30;2.22;;;20.20;97.20;;;;;;5072352;28;20041;-66
2022/07/10 06:15:39;;;;;;;2.70;2.03;;;20.30;99.40;;;;;;5073609;28;20040;-66
2022/07/10 06:18:04;;;;;;;5.65;2.30;;;20.30;98.90;;;;;;5073562;28;20110;-66
2022/07/10 06:20:31;;;;;;;3.83;1.50;;;20.70;97.60;;;;;;5073413;28;20094;-68
2022/07/10 06:22:57;;;;;;;9.43;2.40;;;20.60;97.00;;;;;;5073140;28;20438;-67
2022/07/10 06:25:23;;;;;;;2.83;1.90;;;20.80;97.30;;;;;;5073036;28;20056;-65
2022/07/10 06:27:49;;;;;;;5.07;2.58;;;20.60;97.20;;;;;;5073308;28;20109;-66
2022/07/10 06:30:15;;;;;;;5.85;1.80;;;21.20;97.40;;;;;;5073181;28;20043;-68
2022/07/10 06:32:41;;;;;;;2.45;1.63;;;20.70;96.80;;;;;;5073311;28;20047;-66
2022/07/10 06:35:07;;;;;;;4.72;1.80;;;21.10;97.10;;;;;;5073225;28;20418;-69
2022/07/10 06:37:34;;;;;;;7.88;2.35;;;20.70;97.20;;;;;;5073161;28;20441;-66
2022/07/10 06:40:00;;;;;;;3.75;2.17;;;20.50;97.50;;;;;;5073092;28;20068;-66
2022/07/10 06:42:26;;;;;;;3.10;2.20;;;20.50;97.20;;;;;;5073308;28;20060;-66
2022/07/10 06:44:52;;;;;;;6.55;2.20;;;20.70;97.80;;;;;;5073122;28;20533;-66
2022/07/10 06:50:04;;;;;;;7.50;2.60;;;;;;;;;;5073216;28;20669;-65
2022/07/10 06:52:35;;;;;;;6.05;2.20;;;21.10;97.30;;;;;;5072348;28;20052;-70
2022/07/10 06:55:03;;;;;;;8.18;2.55;;;20.80;97.50;;;;;;5073152;28;20071;-66
2022/07/10 06:57:29;;;;;;;2.50;1.80;;;21.00;97.70;;;;;;5069845;28;20041;-66
2022/07/10 06:59:55;;;;;;;4.90;2.17;;;21.20;97.70;;;;;;5073101;28;20035;-67
2022/07/10 07:02:21;;;;;;;4.55;1.90;;;;;;;;;;5072939;28;20041;-67
2022/07/10 07:04:46;;;;;;;7.85;2.13;;;21.90;99.90;;;;;;5072732;28;20048;-68
2022/07/10 07:07:13;;;;;;;3.78;1.92;;;21.80;97.20;;;;;;5073012;28;20040;-67
2022/07/10 07:09:39;;;;;;;7.68;2.33;;;21.50;97.00;;;;;;5072604;28;20033;-66
2022/07/10 07:12:06;;;;;;;6.60;2.20;;;21.30;97.30;;;;;;5072574;28;20043;-66
2022/07/10 07:14:32;;;;;;;8.05;2.28;;;21.80;97.40;;;;;;5072685;28;20048;-66
2022/07/10 07:17:05;;;;;;;6.20;2.20;;;21.50;96.90;;;;;;5072787;28;20479;-68
2022/07/10 07:23:09;;;;;;;8.68;1.77;;;21.40;97.30;;;;;;5072683;28;20461;-66
2022/07/10 07:25:03;;;;;;;5.05;2.40;;;21.60;97.70;;;;;;5072634;28;20507;-66
2022/07/10 07:27:29;;;;;;;4.10;2.53;;;21.90;97.60;;;;;;5072657;28;20033;-67
2022/07/10 07:29:55;;;;;;;6.70;2.63;;;21.40;97.30;;;;;;5072592;28;20534;-66
2022/07/10 07:32:21;;;;;;;3.63;1.88;;;22.10;97.40;;;;;;5072801;28;20075;-66
2022/07/10 07:34:46;;;;;;;5.40;1.80;;;22.20;97.20;;;;;;5072758;28;20036;-69
2022/07/10 07:37:12;;;;;;;2.70;1.88;;;22.00;97.30;;;;;;5072448;28;20037;-66
2022/07/10 07:39:38;;;;;;;3.83;2.08;;;22.20;97.30;;;;;;5072469;28;20033;-66
2022/07/10 07:42:04;;;;;;;4.25;2.35;;;22.00;97.50;;;;;;5072507;28;20131;-66
2022/07/10 07:44:30;;;;;;;4.82;2.08;;;22.20;97.40;;;;;;5072554;28;20478;-68
2022/07/10 07:46:56;;;;;;;3.22;1.85;;;22.40;97.70;;;;;;5072739;28;20079;-66
2022/07/10 07:49:22;;;;;;;6.22;2.45;;;22.30;97.50;;;;;;5072645;28;20504;-66
2022/07/10 07:51:48;;;;;;;6.28;1.85;;;22.10;97.80;;;;;;5072546;28;20063;-67
2022/07/10 07:54:16;;;;;;;5.35;2.15;;;22.30;97.70;;;;;;5072516;28;20103;-66
2022/07/10 07:56:42;;;;;;;3.05;1.92;;;22.30;97.20;;;;;;5072405;28;20066;-67
2022/07/10 07:59:07;;;;;;;5.93;2.70;;;22.30;97.30;;;;;;5072370;28;20554;-66
2022/07/10 08:01:33;;;;;;;6.18;2.28;;;22.70;96.90;;;;;;5070131;28;20052;-67
2022/07/10 08:03:59;;;;;;;6.32;2.00;;;22.30;97.30;;;;;;5072161;28;20044;-66
2022/07/10 08:06:27;;;;;;;3.92;2.10;;;22.30;97.80;;;;;;5072843;28;20045;-66
2022/07/10 08:08:56;;;;;;;2.85;1.70;;;22.60;97.30;;;;;;5073202;28;20554;-66
2022/07/10 08:11:25;;;;;;;5.65;1.85;;;22.60;96.80;;;;;;5072443;28;20068;-66
2022/07/10 08:13:51;;;;;;;7.85;2.17;;;22.40;97.00;;;;;;5073819;28;20413;-66
2022/07/10 08:16:17;;;;;;;5.82;2.13;;;23.00;97.10;;;;;;5073115;28;20523;-66
2022/07/10 08:18:44;;;;;;;6.28;2.13;;;23.10;96.30;;;;;;5075093;28;20032;-67
2022/07/10 08:21:10;;;;;;;3.03;2.08;;;22.90;96.90;;;;;;5073813;28;20123;-67
2022/07/10 08:23:36;;;;;;;4.18;2.13;;;23.00;96.60;;;;;;5071643;28;20040;-67
2022/07/10 08:26:02;;;;;;;6.70;1.88;;;22.90;96.40;;;;;;5072549;28;20459;-67
2022/07/10 08:28:29;;;;;;;3.72;1.88;;;22.80;96.60;;;;;;5074528;28;20044;-71
2022/07/10 08:30:55;;;;;;;4.28;2.22;;;23.20;96.30;;;;;;5072379;28;20105;-71
2022/07/10 08:33:22;;;;;;;3.63;1.73;;;23.20;96.10;;;;;;5073157;28;20507;-67
2022/07/10 08:35:48;;;;;;;3.67;1.90;;;23.20;95.70;;;;;;5072983;28;20036;-67
2022/07/10 08:38:14;;;;;;;6.93;2.08;;;23.10;96.30;;;;;;5072159;28;20037;-79
2022/07/10 08:40:42;;;;;;;1.50;1.40;;;23.20;95.20;;;;;;5072740;28;20123;-79
2022/07/10 08:43:08;;;;;;;2.65;1.75;;;23.70;98.40;;;;;;5071445;28;20105;-79
2022/07/10 08:45:35;;;;;;;2.97;1.88;;;;;;;;;;5071359;28;20049;-79
2022/07/10 08:48:06;;;;;;;3.35;1.90;;;23.50;94.50;;;;;;5072362;28;20040;-77
2022/07/10 08:50:37;;;;;;;7.68;1.77;;;23.50;95.40;;;;;;5073049;28;20032;-79
2022/07/10 08:53:16;;;;;;;4.22;1.88;;;24.30;94.80;;;;;;5071345;28;20480;-80
2022/07/10 08:55:42;;;;;;;3.25;1.90;;;24.00;94.50;;;;;;5073155;28;20073;-79
2022/07/10 08:58:10;;;;;;;6.28;1.77;;;24.00;95.40;;;;;;5072655;28;20064;-80
2022/07/10 09:00:35;;;;;;;3.78;1.90;;;24.00;94.90;;;;;;5072474;28;20047;-80
2022/07/10 09:03:01;;;;;;;3.45;1.48;;;23.70;95.10;;;;;;5072080;28;20036;-81
2022/07/10 09:05:27;;;;;;;4.38;1.85;;;23.80;94.50;;;;;;5072688;28;20116;-81
2022/07/10 09:07:54;;;;;;;3.67;1.90;;;24.10;95.00;;;;;;5074332;28;20103;-79
2022/07/10 09:10:23;;;;;;;2.28;1.77;;;24.00;95.40;;;;;;5073553;28;20126;-78
2022/07/10 09:12:50;;;;;;;4.93;1.80;;;24.00;94.90;;;;;;5072827;28;20036;-78
2022/07/10 09:15:18;;;;;;;4.95;1.52;;;24.10;94.90;;;;;;5070608;28;20093;-78
2022/07/10 09:18:00;;;;;;;3.08;1.70;;;24.40;95.10;;;;;;5071384;28;20056;-78
2022/07/10 09:20:35;;;;;;;4.03;1.55;;;24.40;93.40;;;;;;5068815;28;20191;-78
2022/07/10 09:23:22;;;;;;;3.88;1.80;;;24.50;93.30;;;;;;5070860;28;20036;-78
2022/07/10 09:25:50;;;;;;;2.60;1.70;;;24.30;93.90;;;;;;5072483;28;20051;-77
2022/07/10 09:28:20;;;;;;;5.78;2.08;;;23.90;94.10;;;;;;5071918;28;20052;-79
2022/07/10 09:30:47;;;;;;;2.10;1.70;;;23.60;94.90;;;;;;5071265;28;20046;-78
2022/07/10 09:33:26;;;;;;;2.42;1.90;;;;;;;;;;5071709;28;20381;-80
2022/07/10 09:36:12;;;;;;;5.03;2.20;;;23.90;94.60;;;;;;5072619;28;20560;-78
2022/07/10 09:38:43;;;;;;;7.20;2.20;;;24.60;95.20;;;;;;5070579;28;20041;-78
2022/07/10 09:41:15;;;;;;;6.10;2.30;;;24.20;94.80;;;;;;5071238;28;20040;-79
2022/07/10 09:43:52;;;;;;;3.30;1.92;;;23.80;94.90;;;;;;5071088;28;20434;-81
2022/07/10 09:46:21;;;;;;;4.90;2.30;;;23.90;95.40;;;;;;5069525;28;20135;-83
2022/07/10 09:48:47;;;;;;;2.25;1.90;;;24.00;94.90;;;;;;5071338;28;20032;-82
2022/07/10 09:51:13;;;;;;;5.28;1.90;;;24.30;94.90;;;;;;5072630;28;20067;-82
2022/07/10 09:53:41;;;;;;;7.72;1.98;;;24.60;94.70;;;;;;5071797;28;20051;-86
2022/07/10 09:56:09;;;;;;;4.45;1.80;;;24.30;94.20;;;;;;5069258;28;20037;-80
2022/07/10 09:58:38;;;;;;;6.15;2.00;;;24.20;94.10;;;;;;5068632;28;20041;-80
2022/07/10 10:01:05;;;;;;;3.67;1.42;;;24.20;93.70;;;;;;5070612;28;20542;-81
2022/07/10 10:03:37;;;;;;;3.13;1.77;;;24.10;93.50;;;;;;5071646;28;20059;-81
2022/07/10 10:06:15;;;;;;;2.90;1.63;;;24.40;93.10;;;;;;5071552;28;20055;-79
2022/07/10 10:09:05;;;;;;;2.08;1.35;;;24.10;93.00;;;;;;5071433;28;20037;-81
2022/07/10 10:11:35;;;;;;;2.28;1.48;;;24.70;93.60;;;;;;5066565;28;20072;-80
2022/07/10 10:14:02;;;;;;;3.97;1.65;;;24.50;93.10;;;;;;5054993;28;20135;-81
2022/07/10 10:16:29;;;;;;;3.95;1.50;;;24.10;91.70;;;;;;5062499;28;20025;-81
2022/07/10 10:21:40;;;;;;;2.63;1.30;;;24.10;92.60;;;;;;5061714;28;20052;-81
2022/07/10 10:24:06;;;;;;;5.05;1.40;;;24.40;92.90;;;;;;5058860;28;20515;-79
2022/07/10 10:26:33;;;;;;;2.50;1.20;;;24.30;92.90;;;;;;5059736;28;20028;-82
2022/07/10 10:29:01;;;;;;;5.80;1.30;;;24.50;92.30;;;;;;5059839;28;20047;-80
2022/07/10 10:31:28;;;;;;;5.53;1.50;;;24.40;92.10;;;;;;5059342;28;20040;-82
2022/07/10 10:33:56;;;;;;;2.10;1.40;;;24.50;91.50;;;;;;5059816;28;20067;-83
2022/07/10 10:36:44;;;;;;;6.40;1.80;;;24.80;92.00;;;;;;5070297;28;20114;-79
2022/07/10 10:39:18;;;;;;;7.75;1.67;;;24.50;91.70;;;;;;5072249;28;20582;-77
2022/07/10 10:41:53;;;;;;;3.88;1.35;;;24.40;92.60;;;;;;5084492;28;20028;-78
2022/07/10 10:44:19;;;;;;;4.72;1.60;;;24.50;92.40;;;;;;5060405;28;20047;-79
2022/07/10 10:46:54;;;;;;;7.68;1.55;;;24.40;92.20;;;;;;5064728;28;20037;-78
2022/07/10 10:49:22;;;;;;;2.95;1.00;;;24.50;92.00;;;;;;5060997;28;20044;-79
2022/07/10 10:52:13;;;;;;;2.13;1.25;;;24.40;91.80;;;;;;5091535;28;20044;-77
2022/07/10 10:54:57;;;;;;;;;;;24.40;91.90;;;;;;5091671;28;20093;-77
2022/07/10 10:57:32;;;;;;;2.92;1.50;;;24.70;92.20;;;;;;5071075;28;20319;-77
2022/07/10 10:59:59;;;;;;;3.35;1.15;;;24.30;91.10;;;;;;5080909;28;20105;-84
2022/07/10 11:02:29;;;;;;;2.97;1.27;;;24.40;91.50;;;;;;5067414;28;20470;-82
2022/07/10 11:05:23;;;;;;;2.42;1.40;;;24.80;88.60;;;;;;5066949;28;20048;-74
2022/07/10 11:08:00;;;;;;;2.40;1.30;;;24.80;91.00;;;;;;5069279;28;20037;-75
2022/07/10 11:10:45;;;;;;;2.30;1.20;;;24.70;91.10;;;;;;5063210;28;20163;-76
2022/07/10 11:13:16;;;;;;;2.35;1.60;;;24.70;90.50;;;;;;5061032;28;20048;-75
2022/07/10 11:15:43;;;;;;;;;;;24.60;90.90;;;;;;5055543;28;20067;-78
2022/07/10 11:18:21;;;;;;;7.30;1.70;;;25.10;90.70;;;;;;5049905;28;19919;-75
2022/07/10 11:20:53;;;;;;;1.88;1.40;;;25.00;90.60;;;;;;5050011;28;20048;-75
2022/07/10 11:23:53;;;;;;;4.82;1.13;;;24.90;91.20;;;;;;5058625;28;20093;-75
2022/07/10 11:26:34;;;;;;;7.47;2.72;;;24.60;90.20;;;;;;5075342;28;20052;-77
2022/07/10 11:29:04;;;;;;;3.17;1.60;;;25.10;90.70;;;;;;5063960;28;20040;-76
2022/07/10 11:31:34;;;;;;;;;;;24.70;90.10;;;;;;5055190;28;20048;-75
2022/07/10 11:34:00;;;;;;;3.25;1.52;;;24.70;90.30;;;;;;5060642;28;20282;-73
2022/07/10 11:36:31;;;;;;;6.07;1.52;;;25.10;91.40;;;;;;5070419;28;20028;-73
2022/07/10 11:39:05;;;;;;;3.80;1.73;;;25.10;90.30;;;;;;5058223;28;20407;-73
2022/07/10 11:41:31;;;;;;;1.55;1.20;;;25.10;89.80;;;;;;5062518;28;20040;-73
2022/07/10 11:44:03;;;;;;;11.18;1.50;;;24.70;87.80;;;;;;5074144;28;20043;-73
2022/07/10 11:46:31;;;;;;;3.25;1.00;;;24.50;83.20;;;;;;5065937;28;20110;-72
2022/07/10 11:48:58;;;;;;;2.13;1.25;;;24.90;83.90;;;;;;5059041;28;20082;-74
2022/07/10 11:51:30;;;;;;;5.15;1.38;;;24.80;83.70;;;;;;5064264;28;20516;-73
2022/07/10 11:54:04;;;;;;;2.20;1.05;;;24.70;81.00;;;;;;5064204;28;20040;-74
2022/07/10 11:56:36;;;;;;;3.28;1.30;;;24.80;83.00;;;;;;5058410;28;20427;-73
2022/07/10 11:59:09;;;;;;;1.10;1.00;;;25.00;80.70;;;;;;5058142;28;20438;-73
2022/07/10 12:01:41;;;;;;;1.92;1.23;;;25.20;80.90;;;;;;5064596;28;20766;-74
2022/07/10 12:04:09;;;;;;;2.47;1.08;;;24.90;78.00;;;;;;5065267;28;20064;-73
2022/07/10 12:06:38;;;;;;;1.17;1.05;;;25.00;76.50;;;;;;5064476;28;20044;-72
2022/07/10 12:09:12;;;;;;;4.05;1.30;;;24.90;77.50;;;;;;5063269;28;20048;-73
2022/07/10 12:11:39;;;;;;;1.67;1.10;;;24.70;74.60;;;;;;5064325;28;20078;-73
2022/07/10 12:14:22;;;;;;;2.15;1.50;;;25.00;75.60;;;;;;5063532;28;20133;-73
2022/07/10 12:16:56;;;;;;;1.20;1.05;;;25.10;73.50;;;;;;5064805;28;20044;-73
2022/07/10 12:19:36;;;;;;;2.13;1.20;;;25.10;68.50;;;;;;5063999;28;20040;-73
2022/07/10 12:22:07;;;;;;;1.23;1.05;;;25.20;68.90;;;;;;5063657;28;20511;-73
2022/07/10 12:24:34;;;;;;;0.80;0.73;;;25.10;72.20;;;;;;5062681;28;20071;-73
2022/07/10 12:27:00;;;;;;;2.47;1.33;;;25.30;70.80;;;;;;5063913;28;20033;-73
2022/07/10 12:29:29;;;;;;;4.85;1.40;;;25.20;69.80;;;;;;5062414;28;20080;-73
2022/07/10 12:32:01;;;;;;;1.15;0.98;;;25.00;72.80;;;;;;5064836;28;20040;-73
2022/07/10 12:34:46;;;;;;;2.13;1.60;;;25.00;72.50;;;;;;5068544;28;20558;-73
2022/07/10 12:37:14;;;;;;;1.50;1.02;;;25.20;71.90;;;;;;5062602;28;20055;-73
2022/07/10 12:39:48;;;;;;;3.17;1.63;;;25.60;74.00;;;;;;5063734;28;20032;-73
2022/07/10 12:42:24;;;;;;;2.95;1.10;;;25.50;74.70;;;;;;5064660;28;20500;-73
2022/07/10 12:44:51;;;;;;;1.83;1.23;;;25.90;76.90;;;;;;5059962;28;20060;-73
2022/07/10 12:47:20;;;;;;;2.33;1.10;;;26.10;75.00;;;;;;5058819;28;20048;-72
2022/07/10 12:50:04;;;;;;;1.63;1.38;;;25.40;71.90;;;;;;5063486;28;20033;-73
2022/07/10 12:52:33;;;;;;;2.38;1.15;;;25.40;73.50;;;;;;5060994;28;20032;-73
2022/07/10 12:55:16;;;;;;;2.13;1.15;;;25.50;74.60;;;;;;5063216;28;20385;-72
2022/07/10 12:57:59;;;;;;;3.22;1.42;;;25.50;74.30;;;;;;5061798;28;20041;-72
2022/07/10 13:00:34;;;;;;;6.63;1.30;;;25.20;75.00;;;;;;5056963;28;20025;-73
2022/07/10 13:03:14;;;;;;;2.72;1.38;;;25.10;75.60;;;;;;5065867;28;20068;-73
2022/07/10 13:05:42;;;;;;;1.85;1.33;;;25.10;76.80;;;;;;5069758;28;20496;-73